sensor_id;sensor_type;location;lat;lon;timestamp;temperature;humidity
61323;DHT22;47203;48.428;11.974;2024-01-30T00:01:32;5.90;50.30
61323;DHT22;47203;48.428;11.974;2024-01-30T00:03:35;5.90;50.30
61323;DHT22;47203;48.428;11.974;2024-01-30T00:05:40;5.80;50.30
61323;DHT22;47203;48.428;11.974;2024-01-30T00:07:43;5.70;50.30
61323;DHT22;47203;48.428;11.974;2024-01-30T00:09:46;5.80;50.60
61323;DHT22;47203;48.428;11.974;2024-01-30T00:11:50;5.90;50.80
61323;DHT22;47203;48.428;11.974;2024-01-30T00:13:55;5.90;50.90
61323;DHT22;47203;48.428;11.974;2024-01-30T00:16:00;5.80;51.10
61323;DHT22;47203;48.428;11.974;2024-01-30T00:18:04;5.80;51.00
61323;DHT22;47203;48.428;11.974;2024-01-30T00:20:08;5.80;50.90
61323;DHT22;47203;48.428;11.974;2024-01-30T00:22:12;5.80;50.90
61323;DHT22;47203;48.428;11.974;2024-01-30T00:24:16;5.80;50.80
61323;DHT22;47203;48.428;11.974;2024-01-30T00:26:20;5.80;50.80
61323;DHT22;47203;48.428;11.974;2024-01-30T00:28:23;5.80;50.70
61323;DHT22;47203;48.428;11.974;2024-01-30T00:30:29;5.80;50.60
61323;DHT22;47203;48.428;11.974;2024-01-30T00:32:32;5.80;50.60
61323;DHT22;47203;48.428;11.974;2024-01-30T00:34:35;5.80;50.50
61323;DHT22;47203;48.428;11.974;2024-01-30T00:36:39;5.80;50.40
61323;DHT22;47203;48.428;11.974;2024-01-30T00:38:42;5.80;50.40
61323;DHT22;47203;48.428;11.974;2024-01-30T00:40:47;5.80;50.40
61323;DHT22;47203;48.428;11.974;2024-01-30T00:42:49;5.80;50.40
61323;DHT22;47203;48.428;11.974;2024-01-30T00:44:53;5.70;50.30
61323;DHT22;47203;48.428;11.974;2024-01-30T00:46:57;5.80;50.40
61323;DHT22;47203;48.428;11.974;2024-01-30T00:49:01;5.70;50.40
61323;DHT22;47203;48.428;11.974;2024-01-30T00:51:05;5.70;50.40
61323;DHT22;47203;48.428;11.974;2024-01-30T00:53:08;5.70;50.50
61323;DHT22;47203;48.428;11.974;2024-01-30T00:55:12;5.80;50.60
61323;DHT22;47203;48.428;11.974;2024-01-30T00:57:16;5.60;50.40
61323;DHT22;47203;48.428;11.974;2024-01-30T00:59:19;5.60;50.40
61323;DHT22;47203;48.428;11.974;2024-01-30T01:01:23;5.70;50.50
61323;DHT22;47203;48.428;11.974;2024-01-30T01:03:28;5.60;50.50
61323;DHT22;47203;48.428;11.974;2024-01-30T01:05:32;5.60;50.60
61323;DHT22;47203;48.428;11.974;2024-01-30T01:07:35;5.60;50.50
61323;DHT22;47203;48.428;11.974;2024-01-30T01:09:39;5.60;50.40
61323;DHT22;47203;48.428;11.974;2024-01-30T01:11:43;5.60;50.50
61323;DHT22;47203;48.428;11.974;2024-01-30T01:13:46;5.50;50.40
61323;DHT22;47203;48.428;11.974;2024-01-30T01:15:49;5.50;50.50
61323;DHT22;47203;48.428;11.974;2024-01-30T01:17:53;5.50;50.60
61323;DHT22;47203;48.428;11.974;2024-01-30T01:19:58;5.60;50.70
61323;DHT22;47203;48.428;11.974;2024-01-30T01:22:01;5.50;51.00
61323;DHT22;47203;48.428;11.974;2024-01-30T01:24:06;5.50;50.90
61323;DHT22;47203;48.428;11.974;2024-01-30T01:26:09;5.40;51.00
61323;DHT22;47203;48.428;11.974;2024-01-30T01:28:13;5.50;50.90
61323;DHT22;47203;48.428;11.974;2024-01-30T01:30:17;5.40;50.70
61323;DHT22;47203;48.428;11.974;2024-01-30T01:32:23;5.40;50.70
61323;DHT22;47203;48.428;11.974;2024-01-30T01:34:27;5.40;50.90
61323;DHT22;47203;48.428;11.974;2024-01-30T01:36:33;5.40;51.00
61323;DHT22;47203;48.428;11.974;2024-01-30T01:38:36;5.40;51.30
61323;DHT22;47203;48.428;11.974;2024-01-30T01:40:42;5.30;51.20
61323;DHT22;47203;48.428;11.974;2024-01-30T01:42:46;5.30;51.30
61323;DHT22;47203;48.428;11.974;2024-01-30T01:44:48;5.30;51.20
61323;DHT22;47203;48.428;11.974;2024-01-30T01:46:52;5.30;51.40
61323;DHT22;47203;48.428;11.974;2024-01-30T01:48:57;5.40;51.40
61323;DHT22;47203;48.428;11.974;2024-01-30T01:51:01;5.30;51.50
61323;DHT22;47203;48.428;11.974;2024-01-30T01:53:08;5.30;51.40
61323;DHT22;47203;48.428;11.974;2024-01-30T01:55:14;5.20;51.30
61323;DHT22;47203;48.428;11.974;2024-01-30T01:57:20;5.20;51.40
61323;DHT22;47203;48.428;11.974;2024-01-30T01:59:25;5.20;51.40
61323;DHT22;47203;48.428;11.974;2024-01-30T02:01:29;5.20;51.50
61323;DHT22;47203;48.428;11.974;2024-01-30T02:03:34;5.20;51.50
61323;DHT22;47203;48.428;11.974;2024-01-30T02:05:39;5.20;51.70
61323;DHT22;47203;48.428;11.974;2024-01-30T02:07:44;5.20;51.70
61323;DHT22;47203;48.428;11.974;2024-01-30T02:09:48;5.20;51.60
61323;DHT22;47203;48.428;11.974;2024-01-30T02:11:52;5.20;51.70
61323;DHT22;47203;48.428;11.974;2024-01-30T02:13:55;5.20;51.60
61323;DHT22;47203;48.428;11.974;2024-01-30T02:15:59;5.30;51.60
61323;DHT22;47203;48.428;11.974;2024-01-30T02:18:01;5.20;51.50
61323;DHT22;47203;48.428;11.974;2024-01-30T02:20:06;5.20;51.40
61323;DHT22;47203;48.428;11.974;2024-01-30T02:22:12;5.20;51.30
61323;DHT22;47203;48.428;11.974;2024-01-30T02:24:16;5.10;51.20
61323;DHT22;47203;48.428;11.974;2024-01-30T02:26:20;5.10;51.10
61323;DHT22;47203;48.428;11.974;2024-01-30T02:28:24;5.10;51.70
61323;DHT22;47203;48.428;11.974;2024-01-30T02:30:27;5.10;51.10
61323;DHT22;47203;48.428;11.974;2024-01-30T02:32:31;5.10;51.10
61323;DHT22;47203;48.428;11.974;2024-01-30T02:34:34;5.10;51.20
61323;DHT22;47203;48.428;11.974;2024-01-30T02:36:38;5.10;51.30
61323;DHT22;47203;48.428;11.974;2024-01-30T02:38:46;5.10;51.30
61323;DHT22;47203;48.428;11.974;2024-01-30T02:40:50;5.00;51.20
61323;DHT22;47203;48.428;11.974;2024-01-30T02:42:53;5.00;51.20
61323;DHT22;47203;48.428;11.974;2024-01-30T02:44:58;5.00;51.80
61323;DHT22;47203;48.428;11.974;2024-01-30T02:47:01;5.00;51.20
61323;DHT22;47203;48.428;11.974;2024-01-30T02:49:05;5.00;51.30
61323;DHT22;47203;48.428;11.974;2024-01-30T02:51:08;5.00;51.40
61323;DHT22;47203;48.428;11.974;2024-01-30T02:53:10;4.90;51.50
61323;DHT22;47203;48.428;11.974;2024-01-30T02:55:16;4.90;51.60
61323;DHT22;47203;48.428;11.974;2024-01-30T02:57:20;4.90;51.70
61323;DHT22;47203;48.428;11.974;2024-01-30T02:59:24;4.90;51.70
61323;DHT22;47203;48.428;11.974;2024-01-30T03:01:28;4.90;51.70
61323;DHT22;47203;48.428;11.974;2024-01-30T03:03:31;4.80;51.60
61323;DHT22;47203;48.428;11.974;2024-01-30T03:05:36;4.80;51.70
61323;DHT22;47203;48.428;11.974;2024-01-30T03:07:39;4.80;51.70
61323;DHT22;47203;48.428;11.974;2024-01-30T03:09:44;4.80;51.80
61323;DHT22;47203;48.428;11.974;2024-01-30T03:11:49;4.80;51.90
61323;DHT22;47203;48.428;11.974;2024-01-30T03:13:52;4.80;52.00
61323;DHT22;47203;48.428;11.974;2024-01-30T03:15:55;4.70;52.00
61323;DHT22;47203;48.428;11.974;2024-01-30T03:17:59;4.70;51.90
61323;DHT22;47203;48.428;11.974;2024-01-30T03:20:03;4.70;52.00
61323;DHT22;47203;48.428;11.974;2024-01-30T03:22:08;4.70;52.10
61323;DHT22;47203;48.428;11.974;2024-01-30T03:24:11;4.70;52.00
61323;DHT22;47203;48.428;11.974;2024-01-30T03:26:15;4.70;51.90
61323;DHT22;47203;48.428;11.974;2024-01-30T03:28:20;4.60;51.90
61323;DHT22;47203;48.428;11.974;2024-01-30T03:30:23;4.60;51.90
61323;DHT22;47203;48.428;11.974;2024-01-30T03:32:27;4.70;51.90
61323;DHT22;47203;48.428;11.974;2024-01-30T03:34:31;4.60;51.70
61323;DHT22;47203;48.428;11.974;2024-01-30T03:36:34;4.70;51.70
61323;DHT22;47203;48.428;11.974;2024-01-30T03:38:38;4.70;51.60
61323;DHT22;47203;48.428;11.974;2024-01-30T03:40:42;4.60;51.60
61323;DHT22;47203;48.428;11.974;2024-01-30T03:42:45;4.60;51.60
61323;DHT22;47203;48.428;11.974;2024-01-30T03:44:50;4.70;52.10
61323;DHT22;47203;48.428;11.974;2024-01-30T03:46:55;4.70;51.90
61323;DHT22;47203;48.428;11.974;2024-01-30T03:49:00;4.60;51.20
61323;DHT22;47203;48.428;11.974;2024-01-30T03:51:03;4.60;51.50
61323;DHT22;47203;48.428;11.974;2024-01-30T03:53:07;4.60;51.70
61323;DHT22;47203;48.428;11.974;2024-01-30T03:55:11;4.60;51.70
61323;DHT22;47203;48.428;11.974;2024-01-30T03:57:15;4.50;51.80
61323;DHT22;47203;48.428;11.974;2024-01-30T03:59:19;4.50;51.80
61323;DHT22;47203;48.428;11.974;2024-01-30T04:01:27;4.60;51.70
61323;DHT22;47203;48.428;11.974;2024-01-30T04:03:30;4.50;51.60
61323;DHT22;47203;48.428;11.974;2024-01-30T04:05:33;4.50;51.50
61323;DHT22;47203;48.428;11.974;2024-01-30T04:07:37;4.50;51.50
61323;DHT22;47203;48.428;11.974;2024-01-30T04:09:41;4.50;51.60
61323;DHT22;47203;48.428;11.974;2024-01-30T04:11:44;4.50;51.80
61323;DHT22;47203;48.428;11.974;2024-01-30T04:13:47;4.50;51.90
61323;DHT22;47203;48.428;11.974;2024-01-30T04:15:50;4.50;51.90
61323;DHT22;47203;48.428;11.974;2024-01-30T04:17:57;4.50;51.90
61323;DHT22;47203;48.428;11.974;2024-01-30T04:20:00;4.50;51.90
61323;DHT22;47203;48.428;11.974;2024-01-30T04:22:03;4.50;51.70
61323;DHT22;47203;48.428;11.974;2024-01-30T04:24:07;4.50;51.70
61323;DHT22;47203;48.428;11.974;2024-01-30T04:26:10;4.40;51.70
61323;DHT22;47203;48.428;11.974;2024-01-30T04:28:14;4.40;51.60
61323;DHT22;47203;48.428;11.974;2024-01-30T04:30:17;4.40;51.60
61323;DHT22;47203;48.428;11.974;2024-01-30T04:32:21;4.40;51.60
61323;DHT22;47203;48.428;11.974;2024-01-30T04:34:26;4.40;51.50
61323;DHT22;47203;48.428;11.974;2024-01-30T04:36:29;4.40;51.50
61323;DHT22;47203;48.428;11.974;2024-01-30T04:38:33;4.40;51.60
61323;DHT22;47203;48.428;11.974;2024-01-30T04:40:36;4.40;51.60
61323;DHT22;47203;48.428;11.974;2024-01-30T04:42:39;4.40;51.60
61323;DHT22;47203;48.428;11.974;2024-01-30T04:44:43;4.30;51.50
61323;DHT22;47203;48.428;11.974;2024-01-30T04:46:46;4.30;51.60
61323;DHT22;47203;48.428;11.974;2024-01-30T04:48:50;4.30;51.70
61323;DHT22;47203;48.428;11.974;2024-01-30T04:50:55;4.30;51.90
61323;DHT22;47203;48.428;11.974;2024-01-30T04:52:58;4.30;51.90
61323;DHT22;47203;48.428;11.974;2024-01-30T04:55:02;4.20;51.90
61323;DHT22;47203;48.428;11.974;2024-01-30T04:57:06;4.30;51.90
61323;DHT22;47203;48.428;11.974;2024-01-30T04:59:14;4.20;52.00
61323;DHT22;47203;48.428;11.974;2024-01-30T05:01:17;4.20;52.00
61323;DHT22;47203;48.428;11.974;2024-01-30T05:03:21;4.20;51.90
61323;DHT22;47203;48.428;11.974;2024-01-30T05:05:26;4.20;51.80
61323;DHT22;47203;48.428;11.974;2024-01-30T05:07:30;4.20;51.70
61323;DHT22;47203;48.428;11.974;2024-01-30T05:09:34;4.20;51.60
61323;DHT22;47203;48.428;11.974;2024-01-30T05:11:37;4.20;51.50
61323;DHT22;47203;48.428;11.974;2024-01-30T05:13:40;4.20;51.50
61323;DHT22;47203;48.428;11.974;2024-01-30T05:15:44;4.20;51.80
61323;DHT22;47203;48.428;11.974;2024-01-30T05:17:46;4.20;51.30
61323;DHT22;47203;48.428;11.974;2024-01-30T05:19:50;4.20;51.40
61323;DHT22;47203;48.428;11.974;2024-01-30T05:21:52;4.10;51.50
61323;DHT22;47203;48.428;11.974;2024-01-30T05:23:58;4.10;51.60
61323;DHT22;47203;48.428;11.974;2024-01-30T05:26:01;4.10;51.60
61323;DHT22;47203;48.428;11.974;2024-01-30T05:28:05;4.10;51.60
61323;DHT22;47203;48.428;11.974;2024-01-30T05:30:10;4.10;51.70
61323;DHT22;47203;48.428;11.974;2024-01-30T05:32:14;4.10;51.80
61323;DHT22;47203;48.428;11.974;2024-01-30T05:34:17;4.00;51.80
61323;DHT22;47203;48.428;11.974;2024-01-30T05:36:20;4.00;51.80
61323;DHT22;47203;48.428;11.974;2024-01-30T05:38:24;4.00;51.90
61323;DHT22;47203;48.428;11.974;2024-01-30T05:40:29;4.00;51.80
61323;DHT22;47203;48.428;11.974;2024-01-30T05:42:32;4.00;51.80
61323;DHT22;47203;48.428;11.974;2024-01-30T05:44:36;4.00;51.80
61323;DHT22;47203;48.428;11.974;2024-01-30T05:46:38;4.00;51.80
61323;DHT22;47203;48.428;11.974;2024-01-30T05:48:43;3.90;51.70
61323;DHT22;47203;48.428;11.974;2024-01-30T05:50:46;3.90;51.70
61323;DHT22;47203;48.428;11.974;2024-01-30T05:52:50;3.90;51.80
61323;DHT22;47203;48.428;11.974;2024-01-30T05:54:53;3.90;51.90
61323;DHT22;47203;48.428;11.974;2024-01-30T05:56:58;3.90;52.00
61323;DHT22;47203;48.428;11.974;2024-01-30T05:59:01;3.90;52.20
61323;DHT22;47203;48.428;11.974;2024-01-30T06:01:07;4.00;52.30
61323;DHT22;47203;48.428;11.974;2024-01-30T06:03:11;3.90;52.40
61323;DHT22;47203;48.428;11.974;2024-01-30T06:05:15;3.90;52.40
61323;DHT22;47203;48.428;11.974;2024-01-30T06:07:18;3.90;52.40
61323;DHT22;47203;48.428;11.974;2024-01-30T06:09:22;3.80;52.20
61323;DHT22;47203;48.428;11.974;2024-01-30T06:11:25;3.80;52.20
61323;DHT22;47203;48.428;11.974;2024-01-30T06:13:31;3.80;52.20
61323;DHT22;47203;48.428;11.974;2024-01-30T06:15:34;3.80;52.20
61323;DHT22;47203;48.428;11.974;2024-01-30T06:17:39;3.80;52.20
61323;DHT22;47203;48.428;11.974;2024-01-30T06:19:42;3.80;52.10
61323;DHT22;47203;48.428;11.974;2024-01-30T06:21:46;3.90;52.20
61323;DHT22;47203;48.428;11.974;2024-01-30T06:23:49;3.80;52.10
61323;DHT22;47203;48.428;11.974;2024-01-30T06:25:53;3.80;52.10
61323;DHT22;47203;48.428;11.974;2024-01-30T06:27:56;3.80;52.20
61323;DHT22;47203;48.428;11.974;2024-01-30T06:30:01;3.80;52.40
61323;DHT22;47203;48.428;11.974;2024-01-30T06:32:05;3.80;52.50
61323;DHT22;47203;48.428;11.974;2024-01-30T06:34:09;3.80;52.50
61323;DHT22;47203;48.428;11.974;2024-01-30T06:36:14;3.80;52.50
61323;DHT22;47203;48.428;11.974;2024-01-30T06:38:18;3.80;52.50
61323;DHT22;47203;48.428;11.974;2024-01-30T06:40:21;3.80;52.40
61323;DHT22;47203;48.428;11.974;2024-01-30T06:42:24;3.80;52.30
61323;DHT22;47203;48.428;11.974;2024-01-30T06:44:27;3.80;52.20
61323;DHT22;47203;48.428;11.974;2024-01-30T06:46:35;3.80;52.20
61323;DHT22;47203;48.428;11.974;2024-01-30T06:48:40;3.80;52.10
61323;DHT22;47203;48.428;11.974;2024-01-30T06:50:42;3.80;52.00
61323;DHT22;47203;48.428;11.974;2024-01-30T06:52:47;3.80;52.00
61323;DHT22;47203;48.428;11.974;2024-01-30T06:54:51;3.70;52.00
61323;DHT22;47203;48.428;11.974;2024-01-30T06:56:54;3.70;51.90
61323;DHT22;47203;48.428;11.974;2024-01-30T06:58:57;3.70;51.90
61323;DHT22;47203;48.428;11.974;2024-01-30T07:01:01;3.70;51.90
61323;DHT22;47203;48.428;11.974;2024-01-30T07:03:06;3.70;52.10
61323;DHT22;47203;48.428;11.974;2024-01-30T07:05:09;3.70;52.10
61323;DHT22;47203;48.428;11.974;2024-01-30T07:07:13;3.70;52.10
61323;DHT22;47203;48.428;11.974;2024-01-30T07:09:17;3.70;52.20
61323;DHT22;47203;48.428;11.974;2024-01-30T07:11:21;3.70;52.30
61323;DHT22;47203;48.428;11.974;2024-01-30T07:13:27;3.70;52.50
61323;DHT22;47203;48.428;11.974;2024-01-30T07:15:31;3.70;52.50
61323;DHT22;47203;48.428;11.974;2024-01-30T07:17:35;3.70;52.50
61323;DHT22;47203;48.428;11.974;2024-01-30T07:19:41;3.80;52.70
61323;DHT22;47203;48.428;11.974;2024-01-30T07:21:45;3.80;52.90
61323;DHT22;47203;48.428;11.974;2024-01-30T07:23:48;3.80;53.00
61323;DHT22;47203;48.428;11.974;2024-01-30T07:25:51;3.90;53.00
61323;DHT22;47203;48.428;11.974;2024-01-30T07:27:55;3.90;53.00
61323;DHT22;47203;48.428;11.974;2024-01-30T07:29:58;4.00;53.10
61323;DHT22;47203;48.428;11.974;2024-01-30T07:32:02;4.10;53.50
61323;DHT22;47203;48.428;11.974;2024-01-30T07:34:06;4.10;52.90
61323;DHT22;47203;48.428;11.974;2024-01-30T07:36:10;4.20;53.00
61323;DHT22;47203;48.428;11.974;2024-01-30T07:38:14;4.40;53.30
61323;DHT22;47203;48.428;11.974;2024-01-30T07:40:17;4.40;53.30
61323;DHT22;47203;48.428;11.974;2024-01-30T07:42:22;4.50;53.40
61323;DHT22;47203;48.428;11.974;2024-01-30T07:44:24;4.60;53.40
61323;DHT22;47203;48.428;11.974;2024-01-30T07:46:28;4.70;53.40
61323;DHT22;47203;48.428;11.974;2024-01-30T07:48:32;4.80;53.40
61323;DHT22;47203;48.428;11.974;2024-01-30T07:50:35;4.80;53.30
61323;DHT22;47203;48.428;11.974;2024-01-30T07:52:41;5.00;53.40
61323;DHT22;47203;48.428;11.974;2024-01-30T07:54:45;5.10;53.40
61323;DHT22;47203;48.428;11.974;2024-01-30T07:56:48;5.20;53.40
61323;DHT22;47203;48.428;11.974;2024-01-30T07:58:51;5.30;53.40
61323;DHT22;47203;48.428;11.974;2024-01-30T08:00:54;5.40;53.40
61323;DHT22;47203;48.428;11.974;2024-01-30T08:03:00;5.70;53.50
61323;DHT22;47203;48.428;11.974;2024-01-30T08:05:04;5.70;53.50
61323;DHT22;47203;48.428;11.974;2024-01-30T08:07:09;5.90;53.70
61323;DHT22;47203;48.428;11.974;2024-01-30T08:09:14;6.00;53.80
61323;DHT22;47203;48.428;11.974;2024-01-30T08:11:18;6.10;53.70
61323;DHT22;47203;48.428;11.974;2024-01-30T08:13:27;6.30;53.60
61323;DHT22;47203;48.428;11.974;2024-01-30T08:15:30;6.40;53.50
61323;DHT22;47203;48.428;11.974;2024-01-30T08:17:34;6.60;53.40
61323;DHT22;47203;48.428;11.974;2024-01-30T08:19:38;6.70;53.40
61323;DHT22;47203;48.428;11.974;2024-01-30T08:21:41;6.90;53.30
61323;DHT22;47203;48.428;11.974;2024-01-30T08:23:45;7.10;53.30
61323;DHT22;47203;48.428;11.974;2024-01-30T08:25:48;7.20;53.10
61323;DHT22;47203;48.428;11.974;2024-01-30T08:27:52;7.50;53.10
61323;DHT22;47203;48.428;11.974;2024-01-30T08:29:55;7.60;52.90
61323;DHT22;47203;48.428;11.974;2024-01-30T08:31:59;7.80;52.80
61323;DHT22;47203;48.428;11.974;2024-01-30T08:34:03;7.90;52.80
61323;DHT22;47203;48.428;11.974;2024-01-30T08:36:08;8.10;52.80
61323;DHT22;47203;48.428;11.974;2024-01-30T08:38:12;8.20;52.50
61323;DHT22;47203;48.428;11.974;2024-01-30T08:40:16;8.40;52.40
61323;DHT22;47203;48.428;11.974;2024-01-30T08:42:21;8.50;52.20
61323;DHT22;47203;48.428;11.974;2024-01-30T08:44:25;8.60;51.90
61323;DHT22;47203;48.428;11.974;2024-01-30T08:46:29;8.80;51.90
61323;DHT22;47203;48.428;11.974;2024-01-30T08:48:32;9.00;52.00
61323;DHT22;47203;48.428;11.974;2024-01-30T08:50:36;9.10;51.90
61323;DHT22;47203;48.428;11.974;2024-01-30T08:52:39;9.30;51.90
61323;DHT22;47203;48.428;11.974;2024-01-30T08:54:42;9.40;51.60
61323;DHT22;47203;48.428;11.974;2024-01-30T08:56:46;9.60;51.50
61323;DHT22;47203;48.428;11.974;2024-01-30T08:58:51;9.80;51.40
61323;DHT22;47203;48.428;11.974;2024-01-30T09:00:54;10.00;51.30
61323;DHT22;47203;48.428;11.974;2024-01-30T09:02:58;10.10;51.30
61323;DHT22;47203;48.428;11.974;2024-01-30T09:05:01;10.30;51.30
61323;DHT22;47203;48.428;11.974;2024-01-30T09:07:05;10.60;51.30
61323;DHT22;47203;48.428;11.974;2024-01-30T09:09:11;10.80;51.10
61323;DHT22;47203;48.428;11.974;2024-01-30T09:11:15;11.10;50.90
61323;DHT22;47203;48.428;11.974;2024-01-30T09:13:18;11.30;50.60
61323;DHT22;47203;48.428;11.974;2024-01-30T09:15:23;11.60;50.50
61323;DHT22;47203;48.428;11.974;2024-01-30T09:17:27;11.80;50.00
61323;DHT22;47203;48.428;11.974;2024-01-30T09:19:32;12.10;49.60
61323;DHT22;47203;48.428;11.974;2024-01-30T09:21:36;12.40;49.50
61323;DHT22;47203;48.428;11.974;2024-01-30T09:23:39;12.60;49.20
61323;DHT22;47203;48.428;11.974;2024-01-30T09:25:42;12.80;49.00
61323;DHT22;47203;48.428;11.974;2024-01-30T09:27:46;13.00;48.70
61323;DHT22;47203;48.428;11.974;2024-01-30T09:29:50;13.30;48.60
61323;DHT22;47203;48.428;11.974;2024-01-30T09:31:56;13.40;48.20
61323;DHT22;47203;48.428;11.974;2024-01-30T09:33:58;13.60;47.80
61323;DHT22;47203;48.428;11.974;2024-01-30T09:36:02;13.80;47.50
61323;DHT22;47203;48.428;11.974;2024-01-30T09:38:06;14.00;47.30
61323;DHT22;47203;48.428;11.974;2024-01-30T09:40:09;14.10;47.00
61323;DHT22;47203;48.428;11.974;2024-01-30T09:42:20;14.40;46.80
61323;DHT22;47203;48.428;11.974;2024-01-30T09:44:31;14.50;46.20
61323;DHT22;47203;48.428;11.974;2024-01-30T09:46:38;14.60;46.50
61323;DHT22;47203;48.428;11.974;2024-01-30T09:48:44;14.70;46.30
61323;DHT22;47203;48.428;11.974;2024-01-30T09:50:50;15.00;45.90
61323;DHT22;47203;48.428;11.974;2024-01-30T09:52:55;15.10;45.70
61323;DHT22;47203;48.428;11.974;2024-01-30T09:55:01;15.40;45.70
61323;DHT22;47203;48.428;11.974;2024-01-30T09:57:05;15.50;45.40
61323;DHT22;47203;48.428;11.974;2024-01-30T09:59:09;15.70;45.00
61323;DHT22;47203;48.428;11.974;2024-01-30T10:01:13;15.80;44.80
61323;DHT22;47203;48.428;11.974;2024-01-30T10:03:21;15.90;44.50
61323;DHT22;47203;48.428;11.974;2024-01-30T10:05:27;15.90;44.20
61323;DHT22;47203;48.428;11.974;2024-01-30T10:07:35;16.10;43.90
61323;DHT22;47203;48.428;11.974;2024-01-30T10:09:39;16.10;44.00
61323;DHT22;47203;48.428;11.974;2024-01-30T10:11:43;16.20;44.10
61323;DHT22;47203;48.428;11.974;2024-01-30T10:13:46;16.20;43.80
61323;DHT22;47203;48.428;11.974;2024-01-30T10:15:49;16.30;43.70
61323;DHT22;47203;48.428;11.974;2024-01-30T10:17:54;16.40;43.60
61323;DHT22;47203;48.428;11.974;2024-01-30T10:19:58;16.50;43.40
61323;DHT22;47203;48.428;11.974;2024-01-30T10:22:05;16.60;43.40
61323;DHT22;47203;48.428;11.974;2024-01-30T10:24:10;16.60;42.90
61323;DHT22;47203;48.428;11.974;2024-01-30T10:26:16;16.70;42.90
61323;DHT22;47203;48.428;11.974;2024-01-30T10:28:20;16.90;42.90
61323;DHT22;47203;48.428;11.974;2024-01-30T10:30:24;17.00;41.90
61323;DHT22;47203;48.428;11.974;2024-01-30T10:32:28;17.00;40.80
61323;DHT22;47203;48.428;11.974;2024-01-30T10:34:32;17.10;40.50
61323;DHT22;47203;48.428;11.974;2024-01-30T10:36:40;17.20;40.10
61323;DHT22;47203;48.428;11.974;2024-01-30T10:38:46;17.20;39.40
61323;DHT22;47203;48.428;11.974;2024-01-30T10:40:56;17.30;39.60
61323;DHT22;47203;48.428;11.974;2024-01-30T10:43:02;17.40;39.20
61323;DHT22;47203;48.428;11.974;2024-01-30T10:45:07;17.50;39.50
61323;DHT22;47203;48.428;11.974;2024-01-30T10:47:13;17.60;39.50
61323;DHT22;47203;48.428;11.974;2024-01-30T10:49:22;17.70;39.50
61323;DHT22;47203;48.428;11.974;2024-01-30T10:51:27;17.80;39.40
61323;DHT22;47203;48.428;11.974;2024-01-30T10:53:32;18.00;39.30
61323;DHT22;47203;48.428;11.974;2024-01-30T10:55:39;18.10;39.10
61323;DHT22;47203;48.428;11.974;2024-01-30T10:57:43;18.30;38.50
61323;DHT22;47203;48.428;11.974;2024-01-30T10:59:47;18.50;38.50
61323;DHT22;47203;48.428;11.974;2024-01-30T11:01:52;18.60;38.20
61323;DHT22;47203;48.428;11.974;2024-01-30T11:03:55;18.80;37.90
61323;DHT22;47203;48.428;11.974;2024-01-30T11:06:00;18.90;37.70
61323;DHT22;47203;48.428;11.974;2024-01-30T11:08:13;19.00;37.70
61323;DHT22;47203;48.428;11.974;2024-01-30T11:10:17;19.10;36.60
61323;DHT22;47203;48.428;11.974;2024-01-30T11:12:24;19.20;37.40
61323;DHT22;47203;48.428;11.974;2024-01-30T11:14:30;19.30;37.40
61323;DHT22;47203;48.428;11.974;2024-01-30T11:16:34;19.40;37.20
61323;DHT22;47203;48.428;11.974;2024-01-30T11:18:37;19.60;37.50
61323;DHT22;47203;48.428;11.974;2024-01-30T11:20:46;19.70;37.50
61323;DHT22;47203;48.428;11.974;2024-01-30T11:22:51;19.80;36.30
61323;DHT22;47203;48.428;11.974;2024-01-30T11:24:55;20.00;37.10
61323;DHT22;47203;48.428;11.974;2024-01-30T11:27:00;20.10;36.90
61323;DHT22;47203;48.428;11.974;2024-01-30T11:29:07;20.20;37.40
61323;DHT22;47203;48.428;11.974;2024-01-30T11:31:19;20.50;36.70
61323;DHT22;47203;48.428;11.974;2024-01-30T11:33:29;20.70;36.30
61323;DHT22;47203;48.428;11.974;2024-01-30T11:35:36;21.00;36.30
61323;DHT22;47203;48.428;11.974;2024-01-30T11:37:41;21.30;37.00
61323;DHT22;47203;48.428;11.974;2024-01-30T11:39:51;21.50;36.70
61323;DHT22;47203;48.428;11.974;2024-01-30T11:41:56;21.70;36.40
61323;DHT22;47203;48.428;11.974;2024-01-30T11:44:05;21.90;36.10
61323;DHT22;47203;48.428;11.974;2024-01-30T11:46:08;22.00;35.10
61323;DHT22;47203;48.428;11.974;2024-01-30T11:48:13;22.00;34.90
61323;DHT22;47203;48.428;11.974;2024-01-30T11:50:16;22.00;34.40
61323;DHT22;47203;48.428;11.974;2024-01-30T11:52:20;21.90;34.10
61323;DHT22;47203;48.428;11.974;2024-01-30T11:54:24;21.70;34.00
61323;DHT22;47203;48.428;11.974;2024-01-30T11:56:27;21.50;33.80
61323;DHT22;47203;48.428;11.974;2024-01-30T11:58:31;21.30;34.30
61323;DHT22;47203;48.428;11.974;2024-01-30T12:00:36;21.00;33.70
61323;DHT22;47203;48.428;11.974;2024-01-30T12:02:41;20.70;33.60
61323;DHT22;47203;48.428;11.974;2024-01-30T12:04:44;20.40;33.90
61323;DHT22;47203;48.428;11.974;2024-01-30T12:06:51;20.10;34.40
61323;DHT22;47203;48.428;11.974;2024-01-30T12:08:57;19.70;34.20
61323;DHT22;47203;48.428;11.974;2024-01-30T12:11:01;19.40;34.40
61323;DHT22;47203;48.428;11.974;2024-01-30T12:13:07;19.10;34.80
61323;DHT22;47203;48.428;11.974;2024-01-30T12:15:10;18.90;35.10
61323;DHT22;47203;48.428;11.974;2024-01-30T12:17:26;18.70;35.30
61323;DHT22;47203;48.428;11.974;2024-01-30T12:19:31;18.60;34.70
61323;DHT22;47203;48.428;11.974;2024-01-30T12:21:35;18.60;35.30
61323;DHT22;47203;48.428;11.974;2024-01-30T12:23:40;18.60;35.50
61323;DHT22;47203;48.428;11.974;2024-01-30T12:25:43;18.60;35.80
61323;DHT22;47203;48.428;11.974;2024-01-30T12:27:50;18.60;36.10
61323;DHT22;47203;48.428;11.974;2024-01-30T12:29:57;18.60;36.30
61323;DHT22;47203;48.428;11.974;2024-01-30T12:32:00;18.70;36.20
61323;DHT22;47203;48.428;11.974;2024-01-30T12:34:05;18.70;36.50
61323;DHT22;47203;48.428;11.974;2024-01-30T12:36:08;18.80;36.60
61323;DHT22;47203;48.428;11.974;2024-01-30T12:38:12;18.90;36.70
61323;DHT22;47203;48.428;11.974;2024-01-30T12:40:17;18.90;36.50
61323;DHT22;47203;48.428;11.974;2024-01-30T12:42:21;19.00;36.20
61323;DHT22;47203;48.428;11.974;2024-01-30T12:44:25;18.90;35.70
61323;DHT22;47203;48.428;11.974;2024-01-30T12:46:29;18.90;35.70
61323;DHT22;47203;48.428;11.974;2024-01-30T12:48:33;18.90;36.00
61323;DHT22;47203;48.428;11.974;2024-01-30T12:50:38;18.90;35.70
61323;DHT22;47203;48.428;11.974;2024-01-30T12:52:42;19.10;36.20
61323;DHT22;47203;48.428;11.974;2024-01-30T12:54:50;19.20;36.50
61323;DHT22;47203;48.428;11.974;2024-01-30T12:56:54;19.40;36.50
61323;DHT22;47203;48.428;11.974;2024-01-30T12:58:58;19.60;36.50
61323;DHT22;47203;48.428;11.974;2024-01-30T13:01:02;19.80;36.20